createdAt,value
2018-04-28T14:51:09.096Z,99804.67
2018-04-28T14:53:38.014Z,99811.70
2018-04-28T14:56:07.046Z,99806.84
2018-04-28T14:58:35.969Z,99804.03
2018-04-28T15:01:04.905Z,99804.38
2018-04-28T15:03:33.890Z,99800.27
2018-04-28T15:06:02.946Z,99796.42
2018-04-28T15:08:31.857Z,99795.12
2018-04-28T15:11:00.823Z,99796.06
2018-04-28T15:13:29.744Z,99790.86
2018-04-28T15:15:58.699Z,99788.13
2018-04-28T15:18:27.684Z,99787.87
2018-04-28T15:20:56.603Z,99782.09
2018-04-28T15:23:25.625Z,99787.77
2018-04-28T15:25:54.609Z,99787.23
2018-04-28T15:28:23.700Z,99787.42
2018-04-28T15:30:52.759Z,99780.67
2018-04-28T15:33:21.729Z,99786.21
2018-04-28T15:35:50.639Z,99785.58
2018-04-28T15:38:19.909Z,99785.88
2018-04-28T15:40:48.821Z,99782.84
2018-04-28T15:43:17.764Z,99781.58
2018-04-28T15:45:46.740Z,99782.03
2018-04-28T15:48:15.645Z,99779.97
2018-04-28T15:50:44.547Z,99780.73
2018-04-28T15:53:13.810Z,99772.48
2018-04-28T15:55:42.713Z,99783.23
2018-04-28T15:58:11.658Z,99775.45
2018-04-28T16:00:41.209Z,99782.19
2018-04-28T16:03:10.126Z,99779.45
2018-04-28T16:05:39.038Z,99775.45
2018-04-28T16:08:08.079Z,99785.44
2018-04-28T16:10:36.983Z,99770.52
2018-04-28T16:13:06.389Z,99783.56
2018-04-28T16:15:35.381Z,99783.59
2018-04-28T16:18:06.053Z,99783.02
2018-04-28T16:20:37.022Z,99780.08
2018-04-28T16:23:07.909Z,99775.36
2018-04-28T16:25:38.990Z,99775.52
2018-04-28T16:28:10.093Z,99779.72
2018-04-28T16:30:41.104Z,99781.00
2018-04-28T16:33:11.996Z,99781.98
2018-04-28T16:35:43.024Z,99785.31
2018-04-28T16:38:13.943Z,99782.20
2018-04-28T16:40:45.158Z,99778.71
2018-04-28T16:43:15.669Z,99783.64
2018-04-28T16:45:46.417Z,99782.73
2018-04-28T16:48:17.097Z,99786.30
2018-04-28T16:50:48.325Z,99779.20
2018-04-28T16:53:18.748Z,99781.83
2018-04-28T16:55:50.304Z,99782.51
2018-04-28T16:58:20.310Z,99789.14
2018-04-28T17:00:51.347Z,99792.94
2018-04-28T17:03:22.047Z,99792.90
2018-04-28T17:05:53.391Z,99795.31
2018-04-28T17:08:24.038Z,99791.89
2018-04-28T17:10:55.105Z,99793.33
2018-04-28T17:13:25.968Z,99794.38
2018-04-28T17:15:56.957Z,99792.01
2018-04-28T17:18:27.553Z,99790.60
2018-04-28T17:20:58.322Z,99796.66
2018-04-28T17:23:29.086Z,99795.63
2018-04-28T17:25:59.724Z,99800.17
2018-04-28T17:28:30.306Z,99808.27
2018-04-28T17:31:01.097Z,99804.09
2018-04-28T17:33:31.974Z,99810.28
2018-04-28T17:36:03.162Z,99806.69
2018-04-28T17:38:34.101Z,99809.67
2018-04-28T17:41:05.089Z,99808.75
2018-04-28T17:43:36.075Z,99818.30
2018-04-28T17:46:06.910Z,99815.34
2018-04-28T17:48:38.056Z,99812.54
2018-04-28T17:51:09.493Z,99816.27
2018-04-28T17:53:40.162Z,99812.09
2018-04-28T17:56:10.826Z,99814.02
2018-04-28T17:58:41.558Z,99815.27
2018-04-28T18:01:12.353Z,99811.66
2018-04-28T18:03:43.060Z,99812.23
2018-04-28T18:06:14.144Z,99811.05
2018-04-28T18:08:45.047Z,99817.42
2018-04-28T18:11:16.040Z,99812.52
2018-04-28T18:13:47.309Z,99815.30
2018-04-28T18:16:18.222Z,99833.39
2018-04-28T18:18:49.061Z,99836.32
2018-04-28T18:21:20.079Z,99836.03
2018-04-28T18:23:51.038Z,99841.22
2018-04-28T18:26:22.189Z,99838.28
2018-04-28T18:28:53.053Z,99836.43
2018-04-28T18:31:24.657Z,99838.04
2018-04-28T18:33:55.215Z,99839.25
2018-04-28T18:36:26.119Z,99837.34
2018-04-28T18:38:57.167Z,99848.86
2018-04-28T18:41:28.130Z,99848.45
2018-04-28T18:44:00.473Z,99837.61
2018-04-28T18:46:30.657Z,99846.22
2018-04-28T18:49:01.436Z,99850.02
2018-04-28T18:51:32.220Z,99849.41
2018-04-28T18:54:03.058Z,99848.34
2018-04-28T18:56:34.062Z,99849.41
2018-04-28T18:59:04.538Z,99853.95
2018-04-28T19:01:36.313Z,99842.48
2018-04-28T19:04:06.811Z,99843.92
2018-04-28T19:06:37.355Z,99845.05
2018-04-28T19:09:08.111Z,99847.59
2018-04-28T19:11:39.369Z,99844.17
2018-04-28T19:14:10.566Z,99850.93
2018-04-28T19:16:40.581Z,99850.28
2018-04-28T19:19:11.308Z,99845.53
2018-04-28T19:21:42.203Z,99851.13
2018-04-28T19:24:13.430Z,99847.45
2018-04-28T19:26:45.064Z,99851.22
2018-04-28T19:29:15.731Z,99844.84
2018-04-28T19:31:46.590Z,99845.74
2018-04-28T19:34:17.425Z,99839.59
2018-04-28T19:36:48.142Z,99837.75
2018-04-28T19:39:19.183Z,99836.20
2018-04-28T19:41:51.032Z,99841.11
2018-04-28T19:44:21.633Z,99837.15
2018-04-28T19:46:52.406Z,99843.37
2018-04-28T19:49:23.154Z,99844.64
2018-04-28T19:51:53.994Z,99843.06
2018-04-28T19:54:25.139Z,99835.65
2018-04-28T19:56:56.078Z,99837.17
2018-04-28T19:59:27.086Z,99828.95
2018-04-28T20:01:58.149Z,99830.48
2018-04-28T20:04:28.807Z,99822.86
2018-04-28T20:06:59.770Z,99835.60
2018-04-28T20:09:30.482Z,99834.94
2018-04-28T20:12:01.783Z,99827.27
2018-04-28T20:14:33.410Z,99830.78
2018-04-28T20:17:03.754Z,99828.47
2018-04-28T20:19:34.314Z,99828.05
2018-04-28T20:22:16.314Z,99820.55
2018-04-28T20:24:56.490Z,99816.17
2018-04-28T20:27:25.764Z,99821.06
2018-04-28T20:29:54.715Z,99824.23
2018-04-28T20:32:23.968Z,99828.14
2018-04-28T20:34:53.993Z,99834.97
2018-04-28T20:37:23.533Z,99833.31
2018-04-28T20:39:52.797Z,99830.81
2018-04-28T20:42:22.407Z,99833.08
2018-04-28T20:44:51.787Z,99832.47
2018-04-28T20:47:20.862Z,99838.56
2018-04-28T20:49:49.847Z,99839.13
2018-04-28T20:52:18.902Z,99836.41
2018-04-28T20:54:47.849Z,99837.20
2018-04-28T20:57:16.825Z,99842.02
2018-04-28T20:59:47.657Z,99840.25
2018-04-28T21:02:18.314Z,99842.50
2018-04-28T21:04:49.220Z,99837.72
2018-04-28T21:07:20.111Z,99846.09
2018-04-28T21:09:51.186Z,99845.88
2018-04-28T21:12:22.175Z,99843.03
2018-04-28T21:14:53.161Z,99841.17
2018-04-28T21:17:24.237Z,99849.99
2018-04-28T21:19:55.139Z,99850.53
2018-04-28T21:22:26.256Z,99848.05
2018-04-28T21:24:57.408Z,99844.75
2018-04-28T21:27:28.235Z,99849.95
2018-04-28T21:29:59.154Z,99853.58
2018-04-28T21:32:30.204Z,99839.84
2018-04-28T21:35:01.125Z,99843.76
2018-04-28T21:37:32.121Z,99841.67
2018-04-28T21:40:03.103Z,99835.79
2018-04-28T21:42:33.806Z,99827.78
2018-04-28T21:45:04.512Z,99825.63
2018-04-28T21:47:35.498Z,99824.28
2018-04-28T21:50:06.210Z,99822.32
2018-04-28T21:52:37.201Z,99820.99
2018-04-28T21:55:08.137Z,99818.45
2018-04-28T21:57:39.182Z,99819.33
2018-04-28T22:00:10.154Z,99819.98
2018-04-28T22:02:41.522Z,99817.34
2018-04-28T22:05:12.303Z,99810.52
2018-04-28T22:07:43.180Z,99808.77
2018-04-28T22:10:14.125Z,99809.50
2018-04-28T22:12:45.092Z,99810.66
2018-04-28T22:15:16.517Z,99807.94
2018-04-28T22:17:47.437Z,99808.67
2018-04-28T22:20:18.154Z,99816.22
2018-04-28T22:22:48.744Z,99818.23
2018-04-28T22:25:19.879Z,99809.45
2018-04-28T22:27:50.683Z,99812.25
2018-04-28T22:30:21.378Z,99806.03
2018-04-28T22:32:52.119Z,99807.98
2018-04-28T22:35:22.662Z,99805.06
2018-04-28T22:37:53.427Z,99807.45
2018-04-28T22:40:23.382Z,99805.25
2018-04-28T22:42:54.175Z,99802.08
2018-04-28T22:45:25.026Z,99805.91
2018-04-28T22:47:56.181Z,99805.12
2018-04-28T22:50:27.073Z,99806.30
2018-04-28T22:52:58.137Z,99806.42
2018-04-28T22:55:29.113Z,99806.92
2018-04-28T22:58:00.105Z,99811.98
2018-04-28T23:00:45.618Z,99811.80
2018-04-28T23:03:14.621Z,99803.25
2018-04-28T23:05:43.558Z,99809.78
2018-04-28T23:08:12.514Z,99806.68
2018-04-28T23:10:41.851Z,99812.47
2018-04-28T23:13:10.801Z,99811.44
2018-04-28T23:15:39.598Z,99815.77
2018-04-28T23:18:08.653Z,99811.51
2018-04-28T23:20:39.378Z,99818.22
2018-04-28T23:23:10.446Z,99819.68
2018-04-28T23:25:41.467Z,99812.77
2018-04-28T23:28:12.349Z,99808.75
2018-04-28T23:30:43.099Z,99810.59
2018-04-28T23:33:14.142Z,99808.25
2018-04-28T23:35:45.031Z,99802.16
2018-04-28T23:38:16.171Z,99796.38
2018-04-28T23:40:47.120Z,99798.55
2018-04-28T23:43:18.181Z,99794.77
2018-04-28T23:45:49.108Z,99789.98
2018-04-28T23:48:20.354Z,99794.73
2018-04-28T23:50:51.090Z,99788.40
2018-04-28T23:53:21.889Z,99786.23
2018-04-28T23:55:52.595Z,99786.44
2018-04-28T23:58:23.385Z,99778.34
